Mountain Home, Arkansas
Current Conditions -  °F | °C
As of 6:53 PM on Monday 24 Nov 2014 (Local Time) from KBPK Reporting Station
Clear Clear  
Wind Chill:   Ceiling: Unl
Heat Index:   Visibility: 10mi
Dew Point: -4°   Wind: 5mph
Humidity: 44%   Direction: NA
Pressure: 29.96"   Gusts: NA
Location:  36.34°N, 92.38°W
Report Text: KBPK 250053Z AUTO VRB04KT 10SM CLR 08/M04 A2996 RMK AO2 SLP148 T00781039
Loading
Personal Weather Stations






























Interactive Weather Map New forecast layout! Learn more

10-Day Weather Forecast

Advertisements
Track Severe Weather on mobile